createdAt,value
2023-05-09T00:05:37.218Z,1.95
2023-05-09T00:15:44.372Z,1.83
2023-05-09T00:25:48.568Z,1.72
2023-05-09T00:35:54.342Z,1.62
2023-05-09T00:46:00.448Z,1.49
2023-05-09T00:56:08.234Z,1.33
2023-05-09T01:06:23.697Z,1.20
2023-05-09T01:16:37.038Z,1.10
2023-05-09T01:26:53.333Z,0.95
2023-05-09T01:37:02.434Z,0.91
2023-05-09T01:47:08.793Z,0.88
2023-05-09T01:57:15.690Z,0.78
2023-05-09T02:07:20.127Z,0.67
2023-05-09T02:17:25.816Z,0.68
2023-05-09T02:27:31.928Z,1.00
2023-05-09T02:37:38.228Z,1.01
2023-05-09T02:47:44.120Z,0.90
2023-05-09T02:57:56.215Z,0.76
2023-05-09T03:08:08.173Z,0.70
2023-05-09T03:18:13.963Z,0.68
2023-05-09T03:28:19.819Z,0.77
2023-05-09T03:38:25.444Z,0.94
2023-05-09T03:48:31.165Z,1.20
2023-05-09T03:58:36.982Z,1.87
2023-05-09T04:08:43.193Z,2.78
2023-05-09T04:18:48.834Z,4.91
2023-05-09T04:28:54.594Z,12.86
2023-05-09T04:39:00.427Z,11.50
2023-05-09T04:49:06.073Z,9.11
2023-05-09T04:59:11.741Z,13.63
2023-05-09T05:09:17.493Z,22.46
2023-05-09T05:19:23.281Z,27.05
2023-05-09T05:29:28.966Z,29.02
2023-05-09T05:39:34.640Z,30.78
2023-05-09T05:49:40.352Z,32.51
2023-05-09T05:59:47.754Z,34.66
2023-05-09T06:09:53.373Z,35.81
2023-05-09T06:19:59.130Z,34.97
2023-05-09T06:30:14.167Z,34.66
2023-05-09T06:40:30.155Z,34.70
2023-05-09T06:50:35.745Z,33.84
2023-05-09T07:00:41.481Z,34.36
2023-05-09T07:10:47.302Z,34.61
2023-05-09T07:20:53.148Z,34.47
2023-05-09T07:30:59.101Z,35.52
2023-05-09T07:41:04.755Z,34.33
2023-05-09T07:51:10.509Z,33.16
2023-05-09T08:01:16.312Z,32.69
2023-05-09T08:11:22.040Z,29.12
2023-05-09T08:21:27.810Z,22.45
2023-05-09T08:31:33.490Z,18.69
2023-05-09T08:41:40.077Z,17.69
2023-05-09T08:51:47.198Z,17.46
2023-05-09T09:01:54.570Z,16.99
2023-05-09T09:12:01.079Z,16.95
2023-05-09T09:22:07.380Z,16.33
2023-05-09T09:32:13.104Z,15.73
2023-05-09T09:42:18.872Z,15.57
2023-05-09T09:52:27.133Z,15.19
2023-05-09T10:02:33.297Z,15.16
2023-05-09T10:12:40.805Z,14.97
2023-05-09T10:22:47.065Z,14.69
2023-05-09T10:32:55.616Z,14.50
2023-05-09T10:43:01.505Z,14.32
2023-05-09T10:53:16.985Z,14.25
2023-05-09T11:03:24.788Z,14.25
2023-05-09T11:13:33.784Z,14.39
2023-05-09T11:23:40.236Z,14.50
2023-05-09T11:33:47.886Z,14.42
2023-05-09T11:43:56.270Z,14.39
2023-05-09T11:54:01.949Z,14.39
2023-05-09T12:04:09.165Z,14.41
2023-05-09T12:14:27.664Z,14.47
2023-05-09T12:24:36.127Z,14.60
2023-05-09T12:34:42.202Z,14.67
2023-05-09T12:44:52.059Z,14.62
2023-05-09T12:55:05.521Z,14.68
2023-05-09T13:05:16.010Z,14.77
2023-05-09T13:15:24.230Z,14.85
2023-05-09T13:25:28.469Z,14.90
2023-05-09T13:35:34.613Z,14.98
2023-05-09T13:45:40.348Z,15.09
2023-05-09T13:55:47.238Z,15.06
2023-05-09T14:05:53.541Z,15.00
2023-05-09T14:15:59.238Z,15.14
2023-05-09T14:26:05.142Z,15.21
2023-05-09T14:36:12.061Z,15.19
2023-05-09T14:46:18.196Z,15.22
2023-05-09T14:56:24.017Z,15.26
2023-05-09T15:06:30.461Z,15.26
2023-05-09T15:16:36.394Z,15.23
2023-05-09T15:26:42.122Z,15.17
2023-05-09T15:36:47.751Z,15.13
2023-05-09T15:46:55.055Z,15.19
2023-05-09T15:57:01.035Z,15.14
2023-05-09T16:07:06.761Z,15.07
2023-05-09T16:17:12.601Z,15.00
2023-05-09T16:27:18.362Z,14.94
2023-05-09T16:37:24.323Z,14.88
2023-05-09T16:47:30.056Z,14.75
2023-05-09T16:57:35.746Z,15.22
2023-05-09T17:07:41.485Z,15.29
2023-05-09T17:17:47.914Z,14.80
2023-05-09T17:27:53.775Z,14.61
2023-05-09T17:37:59.508Z,14.12
2023-05-09T17:48:05.223Z,13.67
2023-05-09T17:58:11.336Z,13.27
2023-05-09T18:08:17.536Z,12.88
2023-05-09T18:18:23.315Z,12.52
2023-05-09T18:28:29.292Z,12.18
2023-05-09T18:38:38.252Z,11.79
2023-05-09T18:48:44.102Z,11.56
2023-05-09T18:58:50.748Z,11.29
2023-05-09T19:08:56.577Z,11.00
2023-05-09T19:19:04.003Z,10.75
2023-05-09T19:29:10.052Z,10.56
2023-05-09T19:39:15.832Z,10.26
2023-05-09T19:49:21.765Z,10.04
2023-05-09T19:59:27.520Z,9.85
2023-05-09T20:09:33.433Z,9.66
2023-05-09T20:19:39.628Z,9.55
2023-05-09T20:29:46.148Z,9.43
2023-05-09T20:39:51.999Z,9.35
2023-05-09T20:50:01.216Z,9.22
2023-05-09T21:00:08.689Z,9.03
2023-05-09T21:10:14.747Z,8.86
2023-05-09T21:20:20.998Z,8.71
2023-05-09T21:30:26.978Z,8.58
2023-05-09T21:40:33.388Z,8.45
2023-05-09T21:50:39.179Z,8.35
2023-05-09T22:00:44.989Z,8.20
2023-05-09T22:10:51.129Z,8.08
2023-05-09T22:20:57.103Z,7.89
2023-05-09T22:31:03.505Z,7.73
2023-05-09T22:41:09.530Z,7.57
2023-05-09T22:51:15.744Z,7.49
2023-05-09T23:01:21.775Z,7.37
2023-05-09T23:11:27.588Z,7.23
2023-05-09T23:21:33.856Z,7.07
2023-05-09T23:31:39.564Z,6.89
2023-05-09T23:41:45.229Z,6.77
2023-05-09T23:51:50.895Z,6.68
